Time;durP1;ratioP1;P1;durP2;ratioP2;P2;SDS_P1;SDS_P2;PMS_P1;PMS_P2;Temp;Humidity;BMP_temperature;BMP_pressure;BME280_temperature;BME280_humidity;BME280_pressure;Samples;Min_cycle;Max_cycle;Signal;HPM_P1;HPM_P2
2022/12/06 00:01:23;;;;;;;;;;;;;;;;;;4987131;28;19961;-79
2022/12/06 00:03:52;;;;;;;;;;;;;;;;;;4982711;28;19969;-79
2022/12/06 00:06:19;;;;;;;;;;;;;;;;;;4977068;28;19961;-78
2022/12/06 00:08:46;;;;;;;;;;;;;;;;;;4978424;28;19965;-79
2022/12/06 00:11:14;;;;;;;;;;;;;;;;;;4995835;28;20004;-78
2022/12/06 00:13:40;;;;;;;;;;;;;;;;;;4996950;28;20020;-79
2022/12/06 00:16:08;;;;;;;;;;;;;;;;;;4997696;28;19974;-78
2022/12/06 00:18:36;;;;;;;;;;;;;;;;;;4982763;28;19982;-80
2022/12/06 00:21:07;;;;;;;;;;;;;;;;;;4990913;28;19926;-80
2022/12/06 00:23:34;;;;;;;;;;;;;;;;;;5002346;28;19949;-79
2022/12/06 00:26:01;;;;;;;;;;;;;;;;;;5001594;28;19936;-80
2022/12/06 00:28:27;;;;;;;;;;;;;;;;;;4989036;28;20034;-77
2022/12/06 00:30:57;;;;;;;;;;;;;;;;;;4983074;28;19925;-78
2022/12/06 00:33:23;;;;;;;;;;;;;;;;;;4993172;28;20369;-77
2022/12/06 00:35:56;;;;;;;;;;;;;;;;;;4980922;28;19930;-77
2022/12/06 00:38:22;;;;;;;;;;;;;;;;;;4997715;28;19926;-78
2022/12/06 00:40:49;;;;;;;;;;;;;;;;;;4989345;28;20012;-79
2022/12/06 00:43:16;;;;;;;;;;;;;;;;;;4990029;28;19993;-78
2022/12/06 00:45:43;;;;;;;;;;;;;;;;;;4997359;28;19925;-77
2022/12/06 00:48:09;;;;;;;;;;;;;;;;;;4998977;28;20009;-78
2022/12/06 00:50:36;;;;;;;;;;;;;;;;;;4989780;28;20309;-78
2022/12/06 00:53:04;;;;;;;;;;;;;;;;;;4998376;28;19932;-77
2022/12/06 00:55:30;;;;;;;;;;;;;;;;;;5000079;28;20026;-78
2022/12/06 00:57:56;;;;;;;;;;;;;;;;;;5006844;28;19933;-77
2022/12/06 01:00:23;;;;;;;;;;;;;;;;;;5000227;28;19989;-78
2022/12/06 01:02:49;;;;;;;;;;;;;;;;;;4992970;28;19973;-79
2022/12/06 01:05:16;;;;;;;;;;;;;;;;;;4985939;28;20409;-79
2022/12/06 01:07:42;;;;;;;;;;;;;;;;;;4981355;28;19968;-79
2022/12/06 01:10:11;;;;;;;;;;;;;;;;;;4989838;28;19932;-77
2022/12/06 01:12:37;;;;;;;;;;;;;;;;;;4987050;28;19981;-78
2022/12/06 01:15:04;;;;;;;;;;;;;;;;;;4992175;28;20405;-79
2022/12/06 01:17:30;;;;;;;;;;;;;;;;;;5001229;28;20381;-79
2022/12/06 01:19:56;;;;;;;;;;;;;;;;;;4994138;28;19926;-80
2022/12/06 01:22:23;;;;;;;;;;;;;;;;;;5000872;28;19926;-78
2022/12/06 01:24:49;;;;;;;;;;;;;;;;;;5002026;28;19977;-77
2022/12/06 01:27:17;;;;;;;;;;;;;;;;;;4982400;28;19973;-78
2022/12/06 01:29:44;;;;;;;;;;;;;;;;;;4983667;28;19984;-78
2022/12/06 01:32:10;;;;;;;;;;;;;;;;;;4986407;28;19973;-79
2022/12/06 01:34:37;;;;;;;;;;;;;;;;;;4983629;28;19973;-78
2022/12/06 01:37:04;;;;;;;;;;;;;;;;;;4982673;28;20389;-78
2022/12/06 01:39:30;;;;;;;;;;;;;;;;;;4989912;28;20008;-79
2022/12/06 01:41:57;;;;;;;;;;;;;;;;;;5000541;28;19926;-79
2022/12/06 01:44:41;;;;;;;;;;;;;;;;;;4991048;28;20020;-79
2022/12/06 01:47:11;;;;;;;;;;;;;;;;;;4998475;28;19964;-79
2022/12/06 01:49:37;;;;;;;;;;;;;;;;;;4998434;28;19932;-80
2022/12/06 01:52:06;;;;;;;;;;;;;;;;;;4997501;28;19969;-78
2022/12/06 01:54:32;;;;;;;;;;;;;;;;;;4995941;28;20009;-79
2022/12/06 01:56:59;;;;;;;;;;;;;;;;;;4978801;28;19936;-78
2022/12/06 01:59:27;;;;;;;;;;;;;;;;;;4983406;28;20005;-78
2022/12/06 02:01:55;;;;;;;;;;;;;;;;;;4999214;28;20013;-79
2022/12/06 02:04:22;;;;;;;;;;;;;;;;;;4988479;28;19985;-77
2022/12/06 02:06:49;;;;;;;;;;;;;;;;;;5004606;28;19929;-78
2022/12/06 02:09:16;;;;;;;;;;;;;;;;;;5010188;28;19965;-78
2022/12/06 02:11:43;;;;;;;;;;;;;;;;;;5008600;28;19965;-78
2022/12/06 02:14:11;;;;;;;;;;;;;;;;;;5001453;28;19932;-80
2022/12/06 02:16:47;;;;;;;;;;;;;;;;;;5002433;28;20012;-79
2022/12/06 02:19:26;;;;;;;;;;;;;;;;;;5016063;28;20292;-78
2022/12/06 02:21:58;;;;;;;;;;;;;;;;;;5014649;28;19981;-79
2022/12/06 02:24:35;;;;;;;;;;;;;;;;;;5014849;28;19926;-77
2022/12/06 02:27:08;;;;;;;;;;;;;;;;;;5018591;28;20164;-77
2022/12/06 02:29:52;;;;;;;;;;;;;;;;;;4999722;28;19969;-77
2022/12/06 02:32:22;;;;;;;;;;;;;;;;;;4998845;28;19922;-76
2022/12/06 02:34:52;;;;;;;;;;;;;;;;;;5001743;28;19914;-76
2022/12/06 02:37:22;;;;;;;;;;;;;;;;;;5002537;28;19918;-76
2022/12/06 02:39:52;;;;;;;;;;;;;;;;;;5002661;28;19953;-80
2022/12/06 02:42:20;;;;;;;;;;;;;;;;;;4983359;28;19965;-79
2022/12/06 02:44:49;;;;;;;;;;;;;;;;;;5003854;28;20012;-80
2022/12/06 02:47:16;;;;;;;;;;;;;;;;;;4994794;28;19969;-79
2022/12/06 02:49:48;;;;;;;;;;;;;;;;;;5002900;28;20547;-79
2022/12/06 02:52:15;;;;;;;;;;;;;;;;;;4998423;28;19926;-79
2022/12/06 02:54:43;;;;;;;;;;;;;;;;;;5000344;28;20014;-80
2022/12/06 02:57:10;;;;;;;;;;;;;;;;;;4994377;28;19926;-80
2022/12/06 02:59:36;;;;;;;;;;;;;;;;;;5001498;28;20592;-81
2022/12/06 03:02:05;;;;;;;;;;;;;;;;;;5005768;28;20008;-77
2022/12/06 03:04:49;;;;;;;;;;;;;;;;;;4998175;28;20021;-80
2022/12/06 03:07:23;;;;;;;;;;;;;;;;;;4993296;28;19933;-80
2022/12/06 03:09:58;;;;;;;;;;;;;;;;;;5000896;28;19984;-80
2022/12/06 03:12:29;;;;;;;;;;;;;;;;;;5000329;28;20008;-79
2022/12/06 03:14:58;;;;;;;;;;;;;;;;;;4997333;28;20013;-78
2022/12/06 03:17:30;;;;;;;;;;;;;;;;;;4989194;28;19933;-80
2022/12/06 03:19:58;;;;;;;;;;;;;;;;;;4982149;28;19956;-81
2022/12/06 03:22:29;;;;;;;;;;;;;;;;;;4991075;28;19926;-80
2022/12/06 03:27:59;;;;;;;;;;;;;;;;;;4993680;28;19925;-79
2022/12/06 03:30:26;;;;;;;;;;;;;;;;;;5000253;28;19929;-79
2022/12/06 03:32:53;;;;;;;;;;;;;;;;;;4999451;28;19926;-79
2022/12/06 03:35:21;;;;;;;;;;;;;;;;;;5000364;28;19945;-80
2022/12/06 03:37:51;;;;;;;;;;;;;;;;;;5001941;28;19989;-78
2022/12/06 03:40:19;;;;;;;;;;;;;;;;;;4983049;28;19926;-79
2022/12/06 03:42:46;;;;;;;;;;;;;;;;;;4982334;28;20025;-79
2022/12/06 03:45:13;;;;;;;;;;;;;;;;;;4982885;28;19930;-78
2022/12/06 03:47:41;;;;;;;;;;;;;;;;;;4984609;28;20388;-79
2022/12/06 03:50:09;;;;;;;;;;;;;;;;;;4982616;28;19926;-79
2022/12/06 03:52:36;;;;;;;;;;;;;;;;;;4980672;28;19926;-80
2022/12/06 03:55:04;;;;;;;;;;;;;;;;;;4981043;28;19926;-79
2022/12/06 03:57:30;;;;;;;;;;;;;;;;;;4999236;28;19925;-79
2022/12/06 03:59:57;;;;;;;;;;;;;;;;;;4981754;28;19932;-78
2022/12/06 04:02:23;;;;;;;;;;;;;;;;;;4979848;28;19926;-79
2022/12/06 04:04:49;;;;;;;;;;;;;;;;;;4986585;28;19998;-79
2022/12/06 04:07:19;;;;;;;;;;;;;;;;;;4980854;28;20304;-80
2022/12/06 04:09:54;;;;;;;;;;;;;;;;;;4988300;28;19926;-80
2022/12/06 04:15:07;;;;;;;;;;;;;;;;;;5052664;28;19932;-78
2022/12/06 04:20:18;;;;;;;;;;;;;;;;;;5052897;28;19939;-79
2022/12/06 04:25:28;;;;;;;;;;;;;;;;;;5033252;28;20623;-78
2022/12/06 04:38:52;;;;;;;;;;;;;;;;;;5038513;28;19932;-79
2022/12/06 04:44:01;;;;;;;;;;;;;;;;;;5039729;28;20012;-79
2022/12/06 04:46:27;;;;;;;;;;;;;;;;;;5037247;28;19971;-78
2022/12/06 04:48:53;;;;;;;;;;;;;;;;;;5036840;28;20023;-78
2022/12/06 04:51:20;;;;;;;;;;;;;;;;;;5037369;28;19925;-79
2022/12/06 04:53:46;;;;;;;;;;;;;;;;;;5037766;28;20276;-78
2022/12/06 04:56:13;;;;;;;;;;;;;;;;;;5038400;28;19964;-80
2022/12/06 04:58:39;;;;;;;;;;;;;;;;;;5038911;28;19969;-80
2022/12/06 05:01:07;;;;;;;;;;;;;;;;;;5038133;28;19925;-79
2022/12/06 05:03:34;;;;;;;;;;;;;;;;;;5036780;28;19948;-79
2022/12/06 05:06:00;;;;;;;;;;;;;;;;;;5035437;28;19960;-80
2022/12/06 05:08:27;;;;;;;;;;;;;;;;;;5046360;28;20052;-78
2022/12/06 05:10:53;;;;;;;;;;;;;;;;;;5050114;28;19953;-78
2022/12/06 05:13:20;;;;;;;;;;;;;;;;;;5052791;28;19913;-78
2022/12/06 05:15:50;;;;;;;;;;;;;;;;;;5054454;28;19926;-77
2022/12/06 05:18:18;;;;;;;;;;;;;;;;;;5053831;28;19929;-79
2022/12/06 05:20:45;;;;;;;;;;;;;;;;;;5051740;28;20016;-78
2022/12/06 05:23:11;;;;;;;;;;;;;;;;;;5053719;28;19925;-79
2022/12/06 05:25:38;;;;;;;;;;;;;;;;;;5040389;28;19988;-78
2022/12/06 05:28:05;;;;;;;;;;;;;;;;;;5040437;28;19964;-78
2022/12/06 05:30:31;;;;;;;;;;;;;;;;;;5037754;28;20407;-79
2022/12/06 05:32:58;;;;;;;;;;;;;;;;;;5036503;28;20497;-78
2022/12/06 05:35:26;;;;;;;;;;;;;;;;;;5034681;28;19978;-79
2022/12/06 05:37:52;;;;;;;;;;;;;;;;;;5034097;28;20304;-76
2022/12/06 05:40:19;;;;;;;;;;;;;;;;;;5034461;28;20358;-77
2022/12/06 05:42:45;;;;;;;;;;;;;;;;;;5034805;28;20028;-78
2022/12/06 05:45:11;;;;;;;;;;;;;;;;;;5033492;28;20008;-78
2022/12/06 05:47:38;;;;;;;;;;;;;;;;;;5034607;28;20044;-77
2022/12/06 05:50:05;;;;;;;;;;;;;;;;;;5033617;28;19933;-78
2022/12/06 05:52:33;;;;;;;;;;;;;;;;;;5033717;28;19948;-78
2022/12/06 05:55:00;;;;;;;;;;;;;;;;;;5035541;28;19956;-77
2022/12/06 05:57:26;;;;;;;;;;;;;;;;;;5034546;28;20015;-77
2022/12/06 05:59:52;;;;;;;;;;;;;;;;;;5033292;28;20402;-76
2022/12/06 06:02:19;;;;;;;;;;;;;;;;;;5033566;28;20499;-78
2022/12/06 06:04:45;;;;;;;;;;;;;;;;;;5035046;28;19989;-79
2022/12/06 06:07:12;;;;;;;;;;;;;;;;;;5037603;28;19932;-79
2022/12/06 06:09:40;;;;;;;;;;;;;;;;;;5036908;28;20015;-79
2022/12/06 06:12:07;;;;;;;;;;;;;;;;;;5036495;28;19978;-78
2022/12/06 06:14:33;;;;;;;;;;;;;;;;;;5036848;28;19925;-80
2022/12/06 06:16:59;;;;;;;;;;;;;;;;;;5037369;28;19971;-80
2022/12/06 06:19:26;;;;;;;;;;;;;;;;;;5036166;28;20466;-78
2022/12/06 06:21:52;;;;;;;;;;;;;;;;;;5037411;28;20357;-78
2022/12/06 06:24:19;;;;;;;;;;;;;;;;;;5036138;28;20430;-78
2022/12/06 06:26:47;;;;;;;;;;;;;;;;;;5035991;28;19976;-80
2022/12/06 06:29:13;;;;;;;;;;;;;;;;;;5035754;28;19925;-78
2022/12/06 06:31:40;;;;;;;;;;;;;;;;;;5035231;28;19925;-79
2022/12/06 06:34:06;;;;;;;;;;;;;;;;;;5036195;28;19964;-79
2022/12/06 06:36:33;;;;;;;;;;;;;;;;;;5036566;28;19972;-78
2022/12/06 06:38:59;;;;;;;;;;;;;;;;;;5035780;28;19925;-79
2022/12/06 06:41:25;;;;;;;;;;;;;;;;;;5034545;28;19992;-78
2022/12/06 06:43:53;;;;;;;;;;;;;;;;;;5035932;28;20012;-79
2022/12/06 06:46:20;;;;;;;;;;;;;;;;;;5035167;28;20011;-78
2022/12/06 06:48:46;;;;;;;;;;;;;;;;;;5034896;28;20008;-78
2022/12/06 06:51:13;;;;;;;;;;;;;;;;;;5034834;28;19960;-78
2022/12/06 06:53:40;;;;;;;;;;;;;;;;;;5035504;28;20024;-78
2022/12/06 06:56:07;;;;;;;;;;;;;;;;;;5035955;28;19932;-79
2022/12/06 06:58:34;;;;;;;;;;;;;;;;;;5036378;28;19992;-79
2022/12/06 07:01:03;;;;;;;;;;;;;;;;;;5037514;28;19992;-79
2022/12/06 07:03:29;;;;;;;;;;;;;;;;;;5035283;28;19957;-79
2022/12/06 07:05:57;;;;;;;;;;;;;;;;;;5035674;28;20016;-79
2022/12/06 07:08:24;;;;;;;;;;;;;;;;;;5035144;28;20581;-78
2022/12/06 07:10:50;;;;;;;;;;;;;;;;;;5034814;28;19925;-78
2022/12/06 07:13:17;;;;;;;;;;;;;;;;;;5034574;28;20466;-79
2022/12/06 07:15:43;;;;;;;;;;;;;;;;;;5035858;28;19948;-80
2022/12/06 07:18:11;;;;;;;;;;;;;;;;;;5035808;28;20023;-79
2022/12/06 07:20:37;;;;;;;;;;;;;;;;;;5035398;28;20277;-78
2022/12/06 07:23:04;;;;;;;;;;;;;;;;;;5035534;28;20390;-78
2022/12/06 07:25:32;;;;;;;;;;;;;;;;;;5033941;28;19925;-78
2022/12/06 07:28:00;;;;;;;;;;;;;;;;;;5034454;28;19925;-78
2022/12/06 07:30:27;;;;;;;;;;;;;;;;;;5039715;28;19948;-78
2022/12/06 07:32:55;;;;;;;;;;;;;;;;;;5037971;28;19976;-78
2022/12/06 07:35:23;;;;;;;;;;;;;;;;;;5038817;28;19957;-78
2022/12/06 07:37:50;;;;;;;;;;;;;;;;;;5037980;28;20312;-78
2022/12/06 07:40:17;;;;;;;;;;;;;;;;;;5038594;28;20471;-78
2022/12/06 07:45:28;;;;;;;;;;;;;;;;;;5035522;28;20059;-77
2022/12/06 07:47:54;;;;;;;;;;;;;;;;;;5035755;28;20374;-77
2022/12/06 07:50:21;;;;;;;;;;;;;;;;;;5036468;28;19940;-77
2022/12/06 07:52:50;;;;;;;;;;;;;;;;;;5036700;28;19975;-77
2022/12/06 07:55:17;;;;;;;;;;;;;;;;;;5029246;28;19952;-77
2022/12/06 07:57:43;;;;;;;;;;;;;;;;;;5038074;28;20379;-78
2022/12/06 08:00:11;;;;;;;;;;;;;;;;;;5038250;28;20398;-78
2022/12/06 08:02:37;;;;;;;;;;;;;;;;;;5037587;28;20418;-79
2022/12/06 08:05:04;;;;;;;;;;;;;;;;;;5036360;28;20362;-79
2022/12/06 08:07:31;;;;;;;;;;;;;;;;;;5024631;28;19979;-78
2022/12/06 08:09:58;;;;;;;;;;;;;;;;;;5037175;28;19992;-79
2022/12/06 08:12:25;;;;;;;;;;;;;;;;;;5037328;28;20020;-77
2022/12/06 08:14:51;;;;;;;;;;;;;;;;;;5034731;28;19929;-77
2022/12/06 08:17:18;;;;;;;;;;;;;;;;;;5036204;28;19932;-78
2022/12/06 08:19:45;;;;;;;;;;;;;;;;;;5036038;28;19925;-77
2022/12/06 08:22:12;;;;;;;;;;;;;;;;;;5034330;28;19933;-77
2022/12/06 08:24:38;;;;;;;;;;;;;;;;;;5034095;28;19925;-77
2022/12/06 08:27:06;;;;;;;;;;;;;;;;;;5034210;28;20392;-77
2022/12/06 08:29:33;;;;;;;;;;;;;;;;;;5035781;28;19925;-78
2022/12/06 08:31:59;;;;;;;;;;;;;;;;;;5034293;28;20384;-77
2022/12/06 08:34:26;;;;;;;;;;;;;;;;;;5033486;28;19956;-77
2022/12/06 08:36:52;;;;;;;;;;;;;;;;;;5035204;28;20024;-77
2022/12/06 08:39:19;;;;;;;;;;;;;;;;;;5034534;28;19968;-78
2022/12/06 08:42:02;;;;;;;;;;;;;;;;;;5034928;28;20004;-78
2022/12/06 08:44:30;;;;;;;;;;;;;;;;;;5036336;28;19932;-78
2022/12/06 08:46:58;;;;;;;;;;;;;;;;;;5036817;28;20008;-80
2022/12/06 08:49:25;;;;;;;;;;;;;;;;;;5036243;28;20017;-81
2022/12/06 08:51:51;;;;;;;;;;;;;;;;;;5037782;28;19932;-80
2022/12/06 08:54:19;;;;;;;;;;;;;;;;;;5037570;28;20012;-81
2022/12/06 08:56:45;;;;;;;;;;;;;;;;;;5039863;28;20277;-82
2022/12/06 08:59:12;;;;;;;;;;;;;;;;;;5038074;28;20019;-82
2022/12/06 09:01:40;;;;;;;;;;;;;;;;;;5037838;28;20084;-80
2022/12/06 09:04:07;;;;;;;;;;;;;;;;;;5036373;28;19940;-80
2022/12/06 09:06:34;;;;;;;;;;;;;;;;;;5039158;28;19925;-81
2022/12/06 09:09:00;;;;;;;;;;;;;;;;;;5039995;28;19968;-79
2022/12/06 09:11:26;;;;;;;;;;;;;;;;;;5039488;28;20012;-82
2022/12/06 09:13:53;;;;;;;;;;;;;;;;;;5041004;28;19964;-81
2022/12/06 09:16:21;;;;;;;;;;;;;;;;;;5034583;28;19925;-82
2022/12/06 09:18:50;;;;;;;;;;;;;;;;;;5019806;28;19933;-81
2022/12/06 09:21:17;;;;;;;;;;;;;;;;;;5034966;28;19935;-84
2022/12/06 09:23:44;;;;;;;;;;;;;;;;;;5039098;28;20443;-81
2022/12/06 09:26:11;;;;;;;;;;;;;;;;;;5041986;28;19989;-81
2022/12/06 09:28:39;;;;;;;;;;;;;;;;;;5045096;28;19940;-81
2022/12/06 09:31:05;;;;;;;;;;;;;;;;;;5046568;28;19979;-82
2022/12/06 09:33:32;;;;;;;;;;;;;;;;;;5045885;28;19932;-83
2022/12/06 09:36:01;;;;;;;;;;;;;;;;;;5046789;28;19965;-84
2022/12/06 09:38:29;;;;;;;;;;;;;;;;;;5049337;28;19963;-82
2022/12/06 09:41:01;;;;;;;;;;;;;;;;;;5048790;28;19925;-83
2022/12/06 09:43:35;;;;;;;;;;;;;;;;;;5043389;28;19933;-81
2022/12/06 09:46:06;;;;;;;;;;;;;;;;;;5042962;28;20347;-79
2022/12/06 09:48:49;;;;;;;;;;;;;;;;;;5042464;28;19955;-81
2022/12/06 09:51:24;;;;;;;;;;;;;;;;;;5038554;28;19991;-81
2022/12/06 09:53:59;;;;;;;;;;;;;;;;;;5017425;28;19926;-81
2022/12/06 09:56:31;;;;;;;;;;;;;;;;;;5035667;28;19932;-80
2022/12/06 09:59:03;;;;;;;;;;;;;;;;;;5039133;28;20458;-80
2022/12/06 10:01:36;;;;;;;;;;;;;;;;;;5029550;28;19932;-80
2022/12/06 10:04:07;;;;;;;;;;;;;;;;;;5030467;28;19932;-80
2022/12/06 10:06:40;;;;;;;;;;;;;;;;;;5035410;28;20287;-79
2022/12/06 10:09:13;;;;;;;;;;;;;;;;;;5035146;28;19929;-80
2022/12/06 10:11:47;;;;;;;;;;;;;;;;;;5034051;28;20040;-80
2022/12/06 10:14:19;;;;;;;;;;;;;;;;;;5034484;28;19932;-81
2022/12/06 10:16:51;;;;;;;;;;;;;;;;;;5035052;28;19925;-80
2022/12/06 10:19:22;;;;;;;;;;;;;;;;;;5035378;28;20011;-80
2022/12/06 10:21:55;;;;;;;;;;;;;;;;;;5033494;28;19952;-79
2022/12/06 10:24:30;;;;;;;;;;;;;;;;;;5035073;28;19993;-79
2022/12/06 10:27:02;;;;;;;;;;;;;;;;;;5034817;28;19925;-79
2022/12/06 10:29:34;;;;;;;;;;;;;;;;;;5034590;28;20020;-80
2022/12/06 10:32:03;;;;;;;;;;;;;;;;;;5030137;28;20021;-79
2022/12/06 10:34:42;;;;;;;;;;;;;;;;;;5030600;28;19960;-79
2022/12/06 10:37:16;;;;;;;;;;;;;;;;;;5033090;28;19976;-80
2022/12/06 10:39:46;;;;;;;;;;;;;;;;;;5032652;28;19929;-80
2022/12/06 10:42:15;;;;;;;;;;;;;;;;;;5033180;28;19931;-80
2022/12/06 10:44:45;;;;;;;;;;;;;;;;;;5032060;28;20020;-82
2022/12/06 10:47:13;;;;;;;;;;;;;;;;;;5034635;28;19925;-79
2022/12/06 10:49:44;;;;;;;;;;;;;;;;;;5033399;28;19925;-81
2022/12/06 10:52:19;;;;;;;;;;;;;;;;;;5032427;28;19925;-79
2022/12/06 10:54:49;;;;;;;;;;;;;;;;;;5033867;28;19925;-79
2022/12/06 10:57:19;;;;;;;;;;;;;;;;;;5033637;28;19925;-79
2022/12/06 10:59:50;;;;;;;;;;;;;;;;;;5034759;28;19932;-79
2022/12/06 11:02:21;;;;;;;;;;;;;;;;;;5035115;28;19932;-80
2022/12/06 11:04:49;;;;;;;;;;;;;;;;;;5039083;28;19979;-81
2022/12/06 11:07:20;;;;;;;;;;;;;;;;;;5038717;28;19979;-80
2022/12/06 11:09:49;;;;;;;;;;;;;;;;;;5038913;28;19926;-80
2022/12/06 11:12:20;;;;;;;;;;;;;;;;;;5037426;28;20012;-80
2022/12/06 11:14:48;;;;;;;;;;;;;;;;;;5037385;28;19965;-79
2022/12/06 11:17:16;;;;;;;;;;;;;;;;;;5036871;28;19929;-79
2022/12/06 11:19:44;;;;;;;;;;;;;;;;;;5037446;28;20016;-80
2022/12/06 11:22:13;;;;;;;;;;;;;;;;;;5036715;28;20008;-79
2022/12/06 11:24:43;;;;;;;;;;;;;;;;;;5036468;28;19925;-79
2022/12/06 11:27:12;;;;;;;;;;;;;;;;;;5036890;28;20288;-79
2022/12/06 11:29:40;;;;;;;;;;;;;;;;;;5037454;28;19925;-79
2022/12/06 11:32:07;;;;;;;;;;;;;;;;;;5037225;28;19925;-80
2022/12/06 11:34:37;;;;;;;;;;;;;;;;;;5038035;28;19925;-79
2022/12/06 11:37:05;;;;;;;;;;;;;;;;;;5037489;28;20082;-81
2022/12/06 11:39:33;;;;;;;;;;;;;;;;;;5037768;28;19965;-80
2022/12/06 11:42:02;;;;;;;;;;;;;;;;;;5037754;28;20188;-80
2022/12/06 11:44:32;;;;;;;;;;;;;;;;;;5038845;28;20012;-80
2022/12/06 11:47:00;;;;;;;;;;;;;;;;;;5040618;28;19929;-79
2022/12/06 11:49:27;;;;;;;;;;;;;;;;;;5038922;28;20284;-79
2022/12/06 11:51:55;;;;;;;;;;;;;;;;;;5044510;28;19925;-80
2022/12/06 11:54:23;;;;;;;;;;;;;;;;;;5042763;28;20012;-81
2022/12/06 11:56:49;;;;;;;;;;;;;;;;;;5031998;28;20012;-81
2022/12/06 11:59:23;;;;;;;;;;;;;;;;;;5036676;28;20583;-82
2022/12/06 12:01:51;;;;;;;;;;;;;;;;;;5038796;28;19949;-80
2022/12/06 12:04:25;;;;;;;;;;;;;;;;;;5031743;28;20449;-78
2022/12/06 12:06:54;;;;;;;;;;;;;;;;;;5034333;28;20008;-78
2022/12/06 12:09:21;;;;;;;;;;;;;;;;;;5036013;28;19925;-77
2022/12/06 12:11:54;;;;;;;;;;;;;;;;;;5035393;28;19925;-77
2022/12/06 12:14:26;;;;;;;;;;;;;;;;;;5035657;28;19993;-81
2022/12/06 12:16:55;;;;;;;;;;;;;;;;;;5038046;28;19931;-80
2022/12/06 12:19:28;;;;;;;;;;;;;;;;;;5039150;28;20007;-80
2022/12/06 12:21:55;;;;;;;;;;;;;;;;;;5035108;28;20020;-78
2022/12/06 12:24:40;;;;;;;;;;;;;;;;;;5035697;28;19972;-78
2022/12/06 12:27:25;;;;;;;;;;;;;;;;;;5027013;28;20032;-78
2022/12/06 12:30:12;;;;;;;;;;;;;;;;;;5036241;28;20015;-78
2022/12/06 12:32:39;;;;;;;;;;;;;;;;;;5036682;28;20024;-80
2022/12/06 12:35:17;;;;;;;;;;;;;;;;;;5030308;28;20008;-80
2022/12/06 12:37:44;;;;;;;;;;;;;;;;;;5026555;28;19925;-80
2022/12/06 12:40:21;;;;;;;;;;;;;;;;;;5034884;28;20008;-77
2022/12/06 12:42:49;;;;;;;;;;;;;;;;;;5032960;28;19947;-77
2022/12/06 12:45:19;;;;;;;;;;;;;;;;;;5020992;28;20363;-79
2022/12/06 12:47:55;;;;;;;;;;;;;;;;;;5030145;28;19931;-79
2022/12/06 12:50:22;;;;;;;;;;;;;;;;;;5035965;28;19936;-80
2022/12/06 12:52:50;;;;;;;;;;;;;;;;;;5030499;28;20016;-79
2022/12/06 12:55:17;;;;;;;;;;;;;;;;;;5031081;28;19929;-78
2022/12/06 12:57:45;;;;;;;;;;;;;;;;;;5031905;28;19980;-79
2022/12/06 13:00:14;;;;;;;;;;;;;;;;;;5023304;28;19926;-80
2022/12/06 13:02:46;;;;;;;;;;;;;;;;;;5034855;28;19925;-78
2022/12/06 13:05:16;;;;;;;;;;;;;;;;;;5031453;28;19925;-79
2022/12/06 13:07:43;;;;;;;;;;;;;;;;;;5024994;28;19929;-79
2022/12/06 13:10:17;;;;;;;;;;;;;;;;;;5039398;28;19965;-80
2022/12/06 13:12:45;;;;;;;;;;;;;;;;;;5035113;28;19925;-79
2022/12/06 13:15:14;;;;;;;;;;;;;;;;;;5034483;28;19925;-79
2022/12/06 13:17:45;;;;;;;;;;;;;;;;;;5034116;28;19939;-78
2022/12/06 13:20:19;;;;;;;;;;;;;;;;;;5034524;28;20016;-79
2022/12/06 13:22:46;;;;;;;;;;;;;;;;;;5033748;28;20016;-79
2022/12/06 13:25:12;;;;;;;;;;;;;;;;;;5033536;28;19929;-78
2022/12/06 13:27:42;;;;;;;;;;;;;;;;;;5032250;28;20040;-80
2022/12/06 13:30:16;;;;;;;;;;;;;;;;;;5032656;28;19933;-77
2022/12/06 13:32:46;;;;;;;;;;;;;;;;;;5022913;28;19936;-79
2022/12/06 13:35:19;;;;;;;;;;;;;;;;;;5031576;28;19936;-79
2022/12/06 13:37:53;;;;;;;;;;;;;;;;;;5024205;28;20299;-80
2022/12/06 13:40:40;;;;;;;;;;;;;;;;;;5031142;28;19951;-80
2022/12/06 13:43:26;;;;;;;;;;;;;;;;;;5032382;28;19936;-80
2022/12/06 13:45:53;;;;;;;;;;;;;;;;;;5036405;28;20378;-79
2022/12/06 13:48:38;;;;;;;;;;;;;;;;;;5038296;28;20454;-80
2022/12/06 13:51:05;;;;;;;;;;;;;;;;;;5038600;28;20394;-81
2022/12/06 13:53:33;;;;;;;;;;;;;;;;;;5027479;28;20063;-79
2022/12/06 13:56:00;;;;;;;;;;;;;;;;;;5038080;28;20016;-79
2022/12/06 13:58:38;;;;;;;;;;;;;;;;;;5033792;28;19932;-79
2022/12/06 14:01:24;;;;;;;;;;;;;;;;;;5025902;28;20029;-81
2022/12/06 14:03:56;;;;;;;;;;;;;;;;;;5036294;28;19964;-81
2022/12/06 14:06:40;;;;;;;;;;;;;;;;;;5037389;28;19929;-80
2022/12/06 14:09:08;;;;;;;;;;;;;;;;;;5026271;28;20396;-80
2022/12/06 14:11:35;;;;;;;;;;;;;;;;;;5029681;28;20534;-81
2022/12/06 14:14:07;;;;;;;;;;;;;;;;;;5031701;28;19978;-83
2022/12/06 14:16:35;;;;;;;;;;;;;;;;;;5029795;28;19932;-81
2022/12/06 14:19:12;;;;;;;;;;;;;;;;;;5029464;28;19947;-80
2022/12/06 14:21:40;;;;;;;;;;;;;;;;;;5025382;28;19925;-81
2022/12/06 14:24:07;;;;;;;;;;;;;;;;;;5015095;28;19973;-80
2022/12/06 14:26:34;;;;;;;;;;;;;;;;;;5034408;28;19975;-79
2022/12/06 14:29:01;;;;;;;;;;;;;;;;;;5034430;28;19967;-80
2022/12/06 14:31:29;;;;;;;;;;;;;;;;;;5033183;28;19932;-80
2022/12/06 14:33:56;;;;;;;;;;;;;;;;;;5025607;28;20020;-80
2022/12/06 14:36:26;;;;;;;;;;;;;;;;;;5024930;28;19931;-80
2022/12/06 14:38:55;;;;;;;;;;;;;;;;;;5032622;28;19940;-80
2022/12/06 14:44:14;;;;;;;;;;;;;;;;;;5023169;28;19947;-80
2022/12/06 14:46:41;;;;;;;;;;;;;;;;;;5034845;28;19986;-80
2022/12/06 14:51:58;;;;;;;;;;;;;;;;;;5035456;28;19987;-79
2022/12/06 14:54:43;;;;;;;;;;;;;;;;;;5023082;28;20425;-79
2022/12/06 14:57:27;;;;;;;;;;;;;;;;;;5026325;28;19940;-82
2022/12/06 14:59:55;;;;;;;;;;;;;;;;;;5021818;28;19933;-78
2022/12/06 15:02:23;;;;;;;;;;;;;;;;;;5017032;28;20140;-80
2022/12/06 15:04:50;;;;;;;;;;;;;;;;;;5033140;28;19956;-80
2022/12/06 15:07:30;;;;;;;;;;;;;;;;;;5035313;28;19932;-80
2022/12/06 15:10:07;;;;;;;;;;;;;;;;;;5030315;28;20411;-80
2022/12/06 15:15:31;;;;;;;;;;;;;;;;;;5016187;28;19932;-82
2022/12/06 15:18:02;;;;;;;;;;;;;;;;;;5016038;28;19925;-82
2022/12/06 15:20:29;;;;;;;;;;;;;;;;;;5045475;23;19938;-81
2022/12/06 15:22:56;;;;;;;;;;;;;;;;;;5054101;28;19947;-81
2022/12/06 15:25:23;;;;;;;;;;;;;;;;;;5053780;28;19968;-81
2022/12/06 15:27:49;;;;;;;;;;;;;;;;;;5055612;28;20004;-81
2022/12/06 15:30:16;;;;;;;;;;;;;;;;;;5054496;28;19991;-81
2022/12/06 15:32:42;;;;;;;;;;;;;;;;;;5054049;28;19964;-81
2022/12/06 15:35:11;;;;;;;;;;;;;;;;;;5053931;28;19992;-82
2022/12/06 15:37:38;;;;;;;;;;;;;;;;;;5053867;28;19932;-80
2022/12/06 15:40:07;;;;;;;;;;;;;;;;;;5044021;28;19969;-80
2022/12/06 15:42:34;;;;;;;;;;;;;;;;;;5044449;28;19932;-80
2022/12/06 15:45:01;;;;;;;;;;;;;;;;;;5057840;28;19925;-81
2022/12/06 15:47:27;;;;;;;;;;;;;;;;;;5053097;28;19964;-80
2022/12/06 15:49:56;;;;;;;;;;;;;;;;;;5057243;28;19924;-80
2022/12/06 15:52:23;;;;;;;;;;;;;;;;;;5057376;28;19932;-80
2022/12/06 15:54:49;;;;;;;;;;;;;;;;;;5059832;28;19971;-80
2022/12/06 15:57:17;;;;;;;;;;;;;;;;;;5057727;28;20005;-81
2022/12/06 15:59:44;;;;;;;;;;;;;;;;;;5055184;28;19990;-80
2022/12/06 16:02:12;;;;;;;;;;;;;;;;;;5058339;28;20139;-80
2022/12/06 16:04:39;;;;;;;;;;;;;;;;;;5059786;28;19936;-81
2022/12/06 16:07:05;;;;;;;;;;;;;;;;;;5061827;28;19925;-81
2022/12/06 16:09:32;;;;;;;;;;;;;;;;;;5044773;28;20426;-81
2022/12/06 16:11:58;;;;;;;;;;;;;;;;;;5045324;28;20129;-80
2022/12/06 16:14:26;;;;;;;;;;;;;;;;;;5044908;28;19993;-81
2022/12/06 16:16:52;;;;;;;;;;;;;;;;;;5045408;28;20406;-81
2022/12/06 16:19:19;;;;;;;;;;;;;;;;;;5046612;28;20000;-81
2022/12/06 16:21:52;;;;;;;;;;;;;;;;;;5045871;28;20004;-81
2022/12/06 16:24:18;;;;;;;;;;;;;;;;;;5048266;28;19929;-81
2022/12/06 16:26:45;;;;;;;;;;;;;;;;;;5051591;28;20028;-81
2022/12/06 16:29:12;;;;;;;;;;;;;;;;;;5062225;28;20442;-81
2022/12/06 16:31:40;;;;;;;;;;;;;;;;;;5072457;28;19929;-80
2022/12/06 16:34:07;;;;;;;;;;;;;;;;;;5073207;28;19932;-80
2022/12/06 16:36:34;;;;;;;;;;;;;;;;;;5072153;28;19925;-80
2022/12/06 16:39:01;;;;;;;;;;;;;;;;;;5067003;28;19932;-80
2022/12/06 16:41:28;;;;;;;;;;;;;;;;;;5057492;28;19913;-80
2022/12/06 16:43:55;;;;;;;;;;;;;;;;;;5057113;28;19947;-81
2022/12/06 16:46:23;;;;;;;;;;;;;;;;;;5055101;28;19936;-80
2022/12/06 16:48:54;;;;;;;;;;;;;;;;;;5076470;28;19933;-81
2022/12/06 16:51:20;;;;;;;;;;;;;;;;;;5074411;28;19992;-81
2022/12/06 16:53:47;;;;;;;;;;;;;;;;;;5053961;28;19967;-81
2022/12/06 16:56:14;;;;;;;;;;;;;;;;;;5051994;28;19936;-81
2022/12/06 16:58:40;;;;;;;;;;;;;;;;;;5059729;28;19964;-81
2022/12/06 17:01:18;;;;;;;;;;;;;;;;;;5069147;28;20352;-80
2022/12/06 17:03:48;;;;;;;;;;;;;;;;;;5074429;28;19955;-81
2022/12/06 17:06:16;;;;;;;;;;;;;;;;;;5069115;28;20407;-80
2022/12/06 17:08:42;;;;;;;;;;;;;;;;;;5066590;28;19925;-80
2022/12/06 17:13:56;;;;;;;;;;;;;;;;;;5067455;28;19971;-80
2022/12/06 17:16:22;;;;;;;;;;;;;;;;;;5050948;28;20025;-81
2022/12/06 17:18:49;;;;;;;;;;;;;;;;;;5045836;28;19933;-80
2022/12/06 17:21:17;;;;;;;;;;;;;;;;;;5059916;28;19921;-80
2022/12/06 17:23:43;;;;;;;;;;;;;;;;;;5057579;28;19979;-77
2022/12/06 17:26:10;;;;;;;;;;;;;;;;;;5047162;28;19972;-81
2022/12/06 17:28:36;;;;;;;;;;;;;;;;;;5054389;28;19931;-81
2022/12/06 17:31:06;;;;;;;;;;;;;;;;;;5049803;28;19925;-78
2022/12/06 17:33:33;;;;;;;;;;;;;;;;;;5048005;28;19925;-79
2022/12/06 17:36:03;;;;;;;;;;;;;;;;;;5045814;28;19929;-80